Terminal Aerodrome Forecast
Issued by NWS

Home | Current Version | Previous Version | Text Only | Print | Product List | Glossary On
Versions: 1 2 3 4 5 6 7 8 9 10 11 12 13 14 15
000
FTUS45 KBOI 171120
TAFBKE
TAF
KBKE 171120Z 1712/1812 VRB04KT P6SM SCT060 OVC090
     FM171800 13008KT P6SM SCT050 OVC080
     FM180000 33012G22KT P6SM -SHRA OVC050
     FM180300 32013KT P6SM -SHRA SCT025 OVC040
     FM180900 32009KT P6SM VCSH SCT025 OVC050=

USA.gov is the U.S. government's official web portal to all federal, state and local government web resources and services.